LFSD 301030Z AUTO 06012KT 030V090 CAVOK 21/08 Q1018

ElémentsDécodage
LFSD Station météo située sur l'aérodrome de DIJON Longvic
301030Z émis le 30 du mois à 10h30 UTC
AUTO Bulletin édité par un automate
06012KT vent du 060°, 12 noeuds
030V090 vent de direction variable entre 030° et 090°
CAVOK Ceiling And Visibility OK
- Visibilité de 10 Km ou plus
- Pas de nuage au-dessous de 1500m ou au-dessous de l'altitude minimale du secteur la plus élevée (si>1500m) et absence de CB
- pas de temps présent significatif
21/08 température 21°C, point de rosée 08°C
 soit une humidité relative de 43%
Q1018 la pression au niveau de la mer (QNH) est de 1018 hPa